Accueil
METAR-TAF:

METAR-TAF

Aéroports :

Tarawa, Kiribati

Aéroport international de Bonriki

latitude: 01-21N, longitude: 172-55E, altitude: 2 m

Observation

Le bulletin a été fait il y a 11 minutes, à 08:00 UTC
Vent 15 kt de est/nord-est
Température 29°C
Humidité 74%
Pression 1012 hPa
Visibilité 10 km ou plus
Quelques nuages à une hauteur de 2000 ft

METAR: NGTA 230800Z 06015KT 9999 FEW020 29/24 Q1012

Heure: 22:11 (08:11 UTC)

Prévision

Le bulletin a été fait il y a 2 heures et 41 minutes, à 05:30 UTC
Prévision valable du 23 à 06 UTC au 24 à 06 UTC
Vent 12 kt de est
Visibilité 10 km ou plus
Quelques nuages à une hauteur de 2000 ft

TAF: NGTA 230530Z 2306/2406 08012KT 9999 FEW020

Observations et prévisions météorologiques de plus de 4000 aéroports (messages METAR et TAF).

Les stations disponibles sont représentées par des disques jaunes et rouges sur la carte.

Passer la souris dessus pour voir le nom de la station.

Cliquer dessus pour voir les observations et prévisions météorologiques.

Pour changer de carte: cliquez sur les boutons verts avec une croix noire pour zoomer, sur le bouton vert avec un tiret pour effectuer un zoom arrière, ou sur les flèches vertes pour les cartes adjacentes.


METAR-TAF: